Time;durP1;ratioP1;P1;durP2;ratioP2;P2;SDS_P1;SDS_P2;PMS_P1;PMS_P2;Temp;Humidity;BMP_temperature;BMP_pressure;BME280_temperature;BME280_humidity;BME280_pressure;Samples;Min_cycle;Max_cycle;Signal;HPM_P1;HPM_P2
2021/12/16 00:01:51;;;;;;;38.45;25.17;;;10.30;95.30;;;;;;4898533;29;20032;-76
2021/12/16 00:29:30;;;;;;;34.95;24.17;;;10.40;95.20;;;;;;4898137;29;20035;-74
2021/12/16 00:31:57;;;;;;;35.58;23.95;;;10.40;95.20;;;;;;4897267;29;20494;-75
2021/12/16 00:34:28;;;;;;;35.47;24.90;;;10.40;95.50;;;;;;4881173;29;20028;-75
2021/12/16 00:36:55;;;;;;;34.05;23.83;;;10.40;95.20;;;;;;4880949;29;20028;-75
2021/12/16 00:39:26;;;;;;;35.00;24.50;;;10.40;95.20;;;;;;4897531;29;20504;-75
2021/12/16 00:41:58;;;;;;;34.85;24.90;;;10.40;95.20;;;;;;4880987;29;20424;-75
2021/12/16 00:47:14;;;;;;;34.05;25.10;;;10.40;95.20;;;;;;4897834;29;20029;-75
2021/12/16 00:49:48;;;;;;;35.00;25.10;;;10.40;95.20;;;;;;4897550;29;20024;-75
2021/12/16 00:55:21;;;;;;;36.03;25.60;;;10.40;95.20;;;;;;4897248;29;20050;-75
2021/12/16 00:57:49;;;;;;;34.75;24.15;;;10.40;95.20;;;;;;4897118;29;20032;-75
2021/12/16 01:00:16;;;;;;;36.47;24.33;;;10.40;95.20;;;;;;4897060;29;20083;-75
2021/12/16 01:51:33;;;;;;;35.58;25.92;;;10.40;95.20;;;;;;4938675;29;20023;-75
2021/12/16 01:57:01;;;;;;;35.58;25.33;;;10.40;95.20;;;;;;4938962;29;20107;-76
2021/12/16 01:59:34;;;;;;;37.13;26.65;;;10.40;95.20;;;;;;4921405;29;20024;-76
2021/12/16 02:02:12;;;;;;;37.55;26.08;;;10.40;95.20;;;;;;4921618;29;20028;-76
2021/12/16 02:04:53;;;;;;;38.00;26.75;;;10.40;95.20;;;;;;4921828;29;20118;-75
2021/12/16 02:07:44;;;;;;;37.35;26.98;;;10.40;95.10;;;;;;4938544;29;20046;-76
2021/12/16 02:10:12;;;;;;;38.80;26.70;;;10.40;95.10;;;;;;4938051;29;20081;-75
2021/12/16 02:13:13;;;;;;;37.17;26.20;;;10.40;95.10;;;;;;4921547;29;20535;-75
2021/12/16 02:32:07;;;;;;;38.55;27.55;;;10.40;95.10;;;;;;4937782;29;20036;-76
2021/12/16 02:37:16;;;;;;;38.20;26.52;;;10.40;95.10;;;;;;4937854;29;20455;-75
2021/12/16 02:39:42;;;;;;;38.70;27.50;;;10.40;95.10;;;;;;4937508;29;20087;-76
2021/12/16 02:42:13;;;;;;;35.42;25.92;;;10.40;95.10;;;;;;4920931;29;20028;-76
2021/12/16 02:48:28;;;;;;;37.45;26.27;;;10.40;95.10;;;;;;4921260;29;20055;-76
2021/12/16 02:50:09;;;;;;;38.35;27.05;;;10.40;95.10;;;;;;4938139;29;20435;-75
2021/12/16 02:52:34;;;;;;;35.97;25.58;;;10.40;95.00;;;;;;4920991;29;20028;-76
2021/12/16 02:55:00;;;;;;;37.67;26.52;;;10.40;95.10;;;;;;4937497;29;20140;-76
2021/12/16 02:57:26;;;;;;;37.70;25.90;;;10.40;95.00;;;;;;4921185;29;20511;-75
2021/12/16 02:59:53;;;;;;;36.83;26.08;;;10.40;95.00;;;;;;4920647;29;20032;-75
2021/12/16 03:02:20;;;;;;;36.30;26.08;;;10.40;95.00;;;;;;4937794;29;20035;-76
2021/12/16 03:04:49;;;;;;;35.55;25.20;;;10.40;95.00;;;;;;4938156;29;20026;-76
2021/12/16 03:07:17;;;;;;;37.83;26.73;;;10.40;95.00;;;;;;4937815;29;20423;-76
2021/12/16 03:10:12;;;;;;;36.72;26.08;;;10.40;95.00;;;;;;4937756;29;20086;-75
2021/12/16 03:15:59;;;;;;;35.25;24.92;;;10.40;95.00;;;;;;4937621;29;20031;-75
2021/12/16 03:18:00;;;;;;;37.85;26.42;;;10.40;95.00;;;;;;4917015;29;20044;-75
2021/12/16 03:23:18;;;;;;;37.22;26.73;;;10.40;95.00;;;;;;4956900;29;20027;-75
2021/12/16 03:26:27;;;;;;;38.22;26.15;;;10.40;95.00;;;;;;4939141;29;20024;-75
2021/12/16 03:40:00;;;;;;;36.65;25.90;;;10.40;94.90;;;;;;4955755;29;20035;-75
2021/12/16 03:42:31;;;;;;;37.78;26.25;;;10.40;94.90;;;;;;4938565;29;20110;-75
2021/12/16 03:45:06;;;;;;;38.60;25.50;;;10.40;95.00;;;;;;4938758;29;20024;-76
2021/12/16 03:47:41;;;;;;;37.53;24.92;;;10.40;95.00;;;;;;4938678;29;20451;-75
2021/12/16 03:50:11;;;;;;;35.08;24.58;;;10.40;95.00;;;;;;4938425;29;20062;-76
2021/12/16 03:52:37;;;;;;;35.95;24.67;;;10.40;94.90;;;;;;4938283;29;20513;-75
2021/12/16 03:55:04;;;;;;;36.65;24.98;;;10.40;94.90;;;;;;4938261;29;20035;-76
2021/12/16 03:57:32;;;;;;;36.10;25.27;;;10.40;95.00;;;;;;4955362;29;20058;-75
2021/12/16 03:59:58;;;;;;;40.70;25.65;;;10.40;94.90;;;;;;4938185;29;20526;-76
2021/12/16 04:02:29;;;;;;;37.08;25.15;;;10.40;94.90;;;;;;4955312;29;20486;-75
2021/12/16 04:04:56;;;;;;;39.55;25.80;;;10.40;94.90;;;;;;4937778;29;20028;-75
2021/12/16 04:07:25;;;;;;;36.25;25.52;;;10.40;94.90;;;;;;4937720;28;20031;-75
2021/12/16 04:09:51;;;;;;;39.65;26.05;;;10.40;94.90;;;;;;4955233;29;20035;-75
2021/12/16 04:12:20;;;;;;;37.40;26.75;;;10.40;94.90;;;;;;4955273;29;20027;-75
2021/12/16 04:14:50;;;;;;;40.10;26.63;;;10.40;94.90;;;;;;4937970;29;20034;-75
2021/12/16 04:17:17;;;;;;;36.92;25.30;;;10.40;94.90;;;;;;4938054;29;20050;-76
2021/12/16 04:19:42;;;;;;;38.28;25.92;;;10.40;94.90;;;;;;4954873;29;20118;-75
2021/12/16 04:22:19;;;;;;;37.13;25.88;;;10.40;94.80;;;;;;4937784;29;20063;-75
2021/12/16 04:24:47;;;;;;;38.88;25.83;;;10.40;94.90;;;;;;4937854;29;20023;-76
2021/12/16 04:27:13;;;;;;;40.05;27.35;;;10.40;94.90;;;;;;4937738;29;20035;-75
2021/12/16 04:29:39;;;;;;;37.90;26.52;;;10.40;95.00;;;;;;4937492;29;20055;-75
2021/12/16 04:32:06;;;;;;;39.60;27.08;;;10.40;95.00;;;;;;4937167;29;20023;-75
2021/12/16 04:34:34;;;;;;;39.10;26.13;;;10.50;95.00;;;;;;4937432;29;20035;-75
2021/12/16 04:37:00;;;;;;;36.60;26.10;;;10.50;95.00;;;;;;4954744;28;20027;-75
2021/12/16 04:39:28;;;;;;;41.25;26.98;;;10.50;94.90;;;;;;4954173;29;20554;-76
2021/12/16 04:41:55;;;;;;;38.88;27.20;;;10.50;94.90;;;;;;4937285;29;20069;-75
2021/12/16 04:44:23;;;;;;;39.75;27.17;;;10.50;95.10;;;;;;4954514;29;20026;-75
2021/12/16 04:46:49;;;;;;;39.17;26.15;;;10.50;94.90;;;;;;4937305;29;20118;-75
2021/12/16 04:49:15;;;;;;;39.47;25.92;;;10.50;94.80;;;;;;4953959;28;20066;-76
2021/12/16 04:51:45;;;;;;;39.60;27.08;;;10.50;94.80;;;;;;4954527;29;20554;-76
2021/12/16 04:54:13;;;;;;;40.03;26.70;;;10.60;94.80;;;;;;4937324;29;20020;-76
2021/12/16 04:56:40;;;;;;;41.65;27.33;;;10.60;94.80;;;;;;4937242;29;20487;-76
2021/12/16 04:59:08;;;;;;;41.85;27.02;;;10.60;94.80;;;;;;4936978;29;20055;-76
2021/12/16 05:01:42;;;;;;;41.25;27.35;;;10.60;94.70;;;;;;4937383;29;20027;-76
2021/12/16 05:04:08;;;;;;;41.17;27.20;;;10.60;94.70;;;;;;4937051;29;20483;-75
2021/12/16 05:06:36;;;;;;;38.38;26.77;;;10.60;94.70;;;;;;4937004;29;20034;-75
2021/12/16 05:09:04;;;;;;;38.45;25.98;;;10.60;94.80;;;;;;4953791;28;20035;-76
2021/12/16 05:11:31;;;;;;;41.47;27.42;;;10.60;94.70;;;;;;4954223;28;20026;-76
2021/12/16 05:13:58;;;;;;;40.03;27.08;;;10.60;94.70;;;;;;4954147;29;20074;-75
2021/12/16 05:16:24;;;;;;;41.22;26.42;;;10.60;94.70;;;;;;4934674;29;20032;-76
2021/12/16 05:18:52;;;;;;;40.10;26.02;;;10.60;94.70;;;;;;4917926;29;20028;-76
2021/12/16 05:21:42;;;;;;;41.13;27.13;;;10.60;94.70;;;;;;4901941;29;20489;-79
2021/12/16 05:24:25;;;;;;;42.72;28.08;;;10.60;94.70;;;;;;4899330;29;20039;-76
2021/12/16 05:26:56;;;;;;;40.90;26.48;;;10.60;94.70;;;;;;4900583;29;20127;-75
2021/12/16 05:29:23;;;;;;;39.55;26.30;;;10.60;94.60;;;;;;4906642;29;20032;-74
2021/12/16 05:31:50;;;;;;;38.13;26.38;;;10.60;94.60;;;;;;4897729;29;20064;-75
2021/12/16 05:34:16;;;;;;;40.72;26.73;;;10.60;94.70;;;;;;4926251;29;20066;-74
2021/12/16 05:36:41;;;;;;;41.85;27.70;;;10.60;94.70;;;;;;4915143;29;20035;-75
2021/12/16 05:39:09;;;;;;;42.25;27.35;;;10.60;94.70;;;;;;4898383;29;20028;-77
2021/12/16 05:41:35;;;;;;;40.90;27.60;;;10.50;94.80;;;;;;4898560;29;20024;-76
2021/12/16 05:44:01;;;;;;;41.10;26.77;;;10.50;94.90;;;;;;4898780;29;20423;-75
2021/12/16 05:46:27;;;;;;;40.50;27.77;;;10.50;94.90;;;;;;4915160;29;20454;-75
2021/12/16 05:48:55;;;;;;;41.97;26.15;;;10.50;95.00;;;;;;4915355;29;20043;-75
2021/12/16 05:51:30;;;;;;;40.40;27.40;;;10.50;95.00;;;;;;4915172;29;20107;-74
2021/12/16 05:53:56;;;;;;;38.60;27.20;;;10.40;95.10;;;;;;4897778;29;20507;-75
2021/12/16 05:56:22;;;;;;;43.03;27.92;;;10.40;95.10;;;;;;4897832;29;20048;-75
2021/12/16 05:58:49;;;;;;;39.25;26.90;;;10.40;95.00;;;;;;4895221;29;20142;-76
2021/12/16 06:01:19;;;;;;;41.60;27.75;;;10.40;95.10;;;;;;4900738;29;20527;-74
2021/12/16 06:03:45;;;;;;;39.10;26.75;;;10.40;95.20;;;;;;4896999;29;20036;-75
2021/12/16 06:06:10;;;;;;;35.90;24.23;;;10.40;95.10;;;;;;4913967;29;20028;-75
2021/12/16 06:08:38;;;;;;;39.45;26.15;;;10.40;95.10;;;;;;4913870;29;20515;-75
2021/12/16 06:11:15;;;;;;;38.75;24.83;;;10.40;95.20;;;;;;4914021;29;20043;-75
2021/12/16 06:14:21;;;;;;;39.22;26.08;;;10.40;95.20;;;;;;4917587;29;20027;-76
2021/12/16 06:27:57;;;;;;;42.53;26.38;;;10.50;95.20;;;;;;4951584;28;20046;-75
2021/12/16 06:30:27;;;;;;;39.25;25.15;;;10.50;95.00;;;;;;4933804;29;20134;-74
2021/12/16 06:32:53;;;;;;;41.85;25.52;;;10.50;95.00;;;;;;4952149;29;20039;-74
2021/12/16 06:35:20;;;;;;;40.72;25.27;;;10.50;95.00;;;;;;4952092;28;20144;-75
2021/12/16 06:37:46;;;;;;;43.25;26.13;;;10.50;95.00;;;;;;4934091;29;20121;-75
2021/12/16 06:40:14;;;;;;;38.95;25.92;;;10.50;95.00;;;;;;4951402;28;20083;-75
2021/12/16 06:42:41;;;;;;;41.03;25.38;;;10.50;95.00;;;;;;4950829;29;20090;-74
2021/12/16 06:45:13;;;;;;;40.00;25.63;;;10.50;94.90;;;;;;4932498;29;20395;-75
2021/12/16 06:47:51;;;;;;;42.17;25.48;;;10.50;95.00;;;;;;4938271;29;20027;-77
2021/12/16 06:50:38;;;;;;;39.15;24.92;;;10.50;95.00;;;;;;4938422;29;20051;-76
2021/12/16 06:53:06;;;;;;;38.45;24.75;;;10.50;95.00;;;;;;4956010;29;20023;-76
2021/12/16 06:55:41;;;;;;;38.53;25.25;;;10.50;95.00;;;;;;4938660;29;20051;-76
2021/12/16 06:58:16;;;;;;;37.85;24.20;;;10.50;95.00;;;;;;4938607;29;20507;-76
2021/12/16 07:00:46;;;;;;;36.28;24.60;;;10.50;95.00;;;;;;4938323;29;20526;-75
2021/12/16 07:03:21;;;;;;;40.80;25.42;;;10.50;95.00;;;;;;4938382;29;20101;-76
2021/12/16 07:05:52;;;;;;;38.10;24.50;;;10.50;95.00;;;;;;4955551;29;20019;-76
2021/12/16 07:08:20;;;;;;;38.60;25.58;;;10.50;95.00;;;;;;4946565;23;20413;-87
2021/12/16 07:10:47;;;;;;;37.15;24.45;;;10.40;95.00;;;;;;4883459;29;20033;-86
2021/12/16 07:13:28;;;;;;;37.47;25.05;;;10.50;95.00;;;;;;4884092;29;20037;-87
2021/12/16 07:15:54;;;;;;;36.45;24.00;;;10.50;95.10;;;;;;4883405;29;20029;-87
2021/12/16 07:18:19;;;;;;;38.53;25.33;;;10.40;95.00;;;;;;4883426;29;20041;-87
2021/12/16 07:20:45;;;;;;;36.97;24.48;;;10.50;95.10;;;;;;4882930;29;20029;-87
2021/12/16 07:23:11;;;;;;;39.28;25.13;;;10.40;95.10;;;;;;4885044;29;20033;-87
2021/12/16 07:25:37;;;;;;;39.65;24.42;;;10.40;95.10;;;;;;4883318;29;20528;-87
2021/12/16 07:28:07;;;;;;;37.40;24.30;;;10.50;95.10;;;;;;4883121;29;20060;-87
2021/12/16 07:30:38;;;;;;;37.08;23.80;;;10.50;95.10;;;;;;4882961;29;20036;-88
2021/12/16 07:33:04;;;;;;;38.87;25.07;;;10.40;95.20;;;;;;4883821;29;20025;-86
2021/12/16 07:35:30;;;;;;;37.20;23.85;;;10.50;95.10;;;;;;4883638;29;20684;-87
2021/12/16 07:37:57;;;;;;;37.13;24.30;;;10.40;95.10;;;;;;4882415;29;20085;-87
2021/12/16 07:40:25;;;;;;;38.95;24.23;;;10.40;95.10;;;;;;4883491;29;20033;-87
2021/12/16 07:45:41;;;;;;;38.92;24.95;;;10.50;95.10;;;;;;4884249;29;20033;-85
2021/12/16 07:48:07;;;;;;;40.60;26.05;;;10.50;95.10;;;;;;4883087;29;20028;-87
2021/12/16 07:50:33;;;;;;;41.05;25.40;;;10.40;95.10;;;;;;4882897;29;20076;-86
2021/12/16 07:52:59;;;;;;;39.88;24.80;;;10.50;95.10;;;;;;4884800;29;20040;-86
2021/12/16 07:55:25;;;;;;;39.72;24.45;;;10.40;95.10;;;;;;4882888;29;20025;-87
2021/12/16 07:57:50;;;;;;;39.05;25.40;;;10.50;95.10;;;;;;4882941;29;20545;-86
2021/12/16 08:00:23;;;;;;;39.10;24.83;;;10.50;95.10;;;;;;4882823;29;20408;-86
2021/12/16 08:02:50;;;;;;;37.78;24.10;;;10.50;95.10;;;;;;4883009;29;20132;-86
2021/12/16 08:05:20;;;;;;;39.38;24.95;;;10.50;95.10;;;;;;4882694;29;20036;-86
2021/12/16 08:07:46;;;;;;;38.88;25.08;;;10.50;95.10;;;;;;4885380;29;20025;-87
2021/12/16 08:10:16;;;;;;;39.25;25.50;;;10.50;95.10;;;;;;4904562;29;20381;-86
2021/12/16 08:12:42;;;;;;;38.15;24.38;;;10.50;95.10;;;;;;4904789;29;20032;-87
2021/12/16 08:15:08;;;;;;;37.40;23.92;;;10.50;95.10;;;;;;4904633;29;20498;-85
2021/12/16 08:17:34;;;;;;;39.05;24.90;;;10.50;95.10;;;;;;4904054;29;20094;-86
2021/12/16 08:19:59;;;;;;;38.75;24.10;;;10.50;95.10;;;;;;4904095;29;20048;-87
2021/12/16 08:22:25;;;;;;;39.10;24.17;;;10.50;95.10;;;;;;4904137;29;20024;-87
2021/12/16 08:24:51;;;;;;;37.42;24.52;;;10.50;95.10;;;;;;4905089;29;20119;-87
2021/12/16 08:27:18;;;;;;;39.00;24.73;;;10.50;95.10;;;;;;4904820;29;20035;-87
2021/12/16 08:29:45;;;;;;;38.17;24.80;;;10.50;95.10;;;;;;4904514;29;20063;-87
2021/12/16 08:32:10;;;;;;;36.53;23.88;;;10.50;95.10;;;;;;4904825;29;20082;-86
2021/12/16 08:34:38;;;;;;;36.75;24.13;;;10.50;95.10;;;;;;4904847;29;20040;-87
2021/12/16 08:37:06;;;;;;;39.58;24.92;;;10.50;95.10;;;;;;4904854;29;20035;-87
2021/12/16 08:39:33;;;;;;;37.67;24.75;;;10.50;95.10;;;;;;4904081;29;20103;-86
2021/12/16 08:42:00;;;;;;;37.78;23.90;;;10.50;95.10;;;;;;4904494;29;20400;-87
2021/12/16 08:44:27;;;;;;;40.17;24.85;;;10.50;95.00;;;;;;4903745;29;20131;-86
2021/12/16 08:46:56;;;;;;;36.88;24.35;;;10.50;95.00;;;;;;4904518;29;20027;-88
2021/12/16 08:49:22;;;;;;;36.15;23.52;;;10.50;95.10;;;;;;4904709;29;20030;-87
2021/12/16 08:51:51;;;;;;;36.63;23.35;;;10.50;95.10;;;;;;4921458;29;20470;-88
2021/12/16 08:54:19;;;;;;;38.40;24.80;;;10.50;95.10;;;;;;4904955;29;20031;-87
2021/12/16 08:56:45;;;;;;;37.00;23.60;;;10.50;95.10;;;;;;4904942;29;20060;-87
2021/12/16 08:59:11;;;;;;;37.33;23.30;;;10.50;95.10;;;;;;4904461;29;20032;-87
2021/12/16 09:01:42;;;;;;;37.20;24.42;;;10.50;95.10;;;;;;4904648;29;20028;-86
2021/12/16 09:04:07;;;;;;;38.67;24.25;;;10.50;95.10;;;;;;4921671;29;20032;-88
2021/12/16 09:06:33;;;;;;;38.20;24.25;;;10.50;95.00;;;;;;4922081;29;20020;-86
2021/12/16 09:08:59;;;;;;;37.40;23.48;;;10.50;95.10;;;;;;4904320;29;20032;-86
2021/12/16 09:11:28;;;;;;;36.03;23.33;;;10.50;95.00;;;;;;4904876;29;20507;-87
2021/12/16 09:13:56;;;;;;;37.92;23.15;;;10.50;95.00;;;;;;4920648;29;20055;-88
2021/12/16 09:16:24;;;;;;;37.72;23.40;;;10.50;95.00;;;;;;4921360;29;20036;-87
2021/12/16 09:18:50;;;;;;;36.75;22.98;;;10.50;95.00;;;;;;4921393;29;20075;-87
2021/12/16 09:21:21;;;;;;;36.47;23.05;;;10.50;95.00;;;;;;4902919;29;20036;-86
2021/12/16 09:23:49;;;;;;;33.15;22.50;;;10.50;95.00;;;;;;4904238;29;20064;-86
2021/12/16 09:26:16;;;;;;;37.17;22.98;;;10.50;95.00;;;;;;4903549;29;20029;-87
2021/12/16 09:28:43;;;;;;;33.15;20.80;;;10.50;95.00;;;;;;4921308;29;20392;-87
2021/12/16 09:31:12;;;;;;;34.78;22.95;;;10.50;95.00;;;;;;4903286;29;20029;-87
2021/12/16 09:33:44;;;;;;;37.28;23.55;;;10.50;95.00;;;;;;4904149;29;20032;-87
2021/12/16 09:36:16;;;;;;;33.85;22.88;;;10.50;95.00;;;;;;4903818;29;20032;-87
2021/12/16 09:38:43;;;;;;;33.97;22.08;;;10.50;95.00;;;;;;4903931;29;20067;-86
2021/12/16 09:41:09;;;;;;;34.30;22.75;;;10.50;95.00;;;;;;4904064;29;20034;-86
2021/12/16 09:43:39;;;;;;;33.53;22.52;;;10.60;95.00;;;;;;4920992;29;20552;-87
2021/12/16 09:46:15;;;;;;;34.20;22.40;;;10.50;95.00;;;;;;4903680;29;20114;-88
2021/12/16 09:48:42;;;;;;;34.75;22.58;;;10.50;95.00;;;;;;4903001;29;20127;-87
2021/12/16 09:51:10;;;;;;;34.65;23.08;;;10.50;95.00;;;;;;4903862;29;20061;-88
2021/12/16 09:53:39;;;;;;;36.10;23.15;;;10.50;94.90;;;;;;4903734;29;20028;-87
2021/12/16 09:56:09;;;;;;;35.40;22.63;;;10.50;95.00;;;;;;4904347;29;20492;-88
2021/12/16 09:58:39;;;;;;;34.45;22.38;;;10.50;95.00;;;;;;4921514;29;20079;-87
2021/12/16 10:01:09;;;;;;;35.25;22.70;;;10.50;95.00;;;;;;4903352;29;20428;-88
2021/12/16 10:03:37;;;;;;;36.27;22.77;;;10.50;95.00;;;;;;4906045;29;20408;-86
2021/12/16 10:06:03;;;;;;;37.60;23.40;;;10.50;95.00;;;;;;4907682;29;20021;-88
2021/12/16 10:08:29;;;;;;;35.00;22.77;;;10.50;94.90;;;;;;4907548;29;20407;-87
2021/12/16 10:10:55;;;;;;;34.80;22.98;;;10.50;94.90;;;;;;4907229;29;20051;-88
2021/12/16 10:13:31;;;;;;;37.28;22.95;;;10.50;95.10;;;;;;4907183;29;20032;-87
2021/12/16 10:18:28;;;;;;;35.10;22.45;;;10.50;94.90;;;;;;4924296;29;20088;-87
2021/12/16 10:20:58;;;;;;;36.58;22.80;;;10.50;94.90;;;;;;4906697;29;20460;-87
2021/12/16 10:23:28;;;;;;;34.38;21.90;;;10.50;95.00;;;;;;4907194;29;20381;-87
2021/12/16 10:26:00;;;;;;;38.20;23.60;;;10.50;94.90;;;;;;4907389;29;20028;-88
2021/12/16 10:28:33;;;;;;;36.00;22.10;;;10.50;94.90;;;;;;4906920;29;20047;-88
2021/12/16 10:31:07;;;;;;;36.13;22.60;;;10.50;94.90;;;;;;4906690;29;20115;-88
2021/12/16 10:33:43;;;;;;;34.78;21.50;;;10.50;94.90;;;;;;4907535;29;20504;-89
2021/12/16 10:36:29;;;;;;;36.53;23.05;;;10.50;94.90;;;;;;4907487;29;20028;-87
2021/12/16 10:38:55;;;;;;;35.95;22.83;;;10.50;94.90;;;;;;4906469;29;20115;-85
2021/12/16 10:41:47;;;;;;;39.92;24.08;;;10.50;95.00;;;;;;4907020;29;20428;-86
2021/12/16 10:44:17;;;;;;;38.78;22.98;;;10.60;95.00;;;;;;4910483;29;20524;-88
2021/12/16 10:46:54;;;;;;;37.75;24.35;;;10.60;95.00;;;;;;4906689;29;20032;-89
2021/12/16 10:49:27;;;;;;;33.97;22.33;;;10.60;94.90;;;;;;4906477;29;20083;-88
2021/12/16 10:51:57;;;;;;;37.70;22.77;;;10.60;94.90;;;;;;4906460;29;20031;-88
2021/12/16 10:54:41;;;;;;;36.63;23.15;;;10.70;94.90;;;;;;4906909;29;20024;-88
2021/12/16 10:57:14;;;;;;;38.13;23.40;;;10.60;94.80;;;;;;4906676;29;20082;-89
2021/12/16 10:59:49;;;;;;;37.58;22.77;;;10.70;94.80;;;;;;4923504;29;20032;-87
2021/12/16 11:02:19;;;;;;;37.63;23.40;;;10.70;94.80;;;;;;4924355;29;20035;-88
2021/12/16 11:04:47;;;;;;;36.83;22.83;;;10.70;94.70;;;;;;4906781;29;20028;-88
2021/12/16 11:07:21;;;;;;;38.78;23.55;;;10.70;94.70;;;;;;4906883;29;20028;-88
2021/12/16 11:10:31;;;;;;;38.78;22.90;;;10.70;94.70;;;;;;4906137;29;20036;-87
2021/12/16 11:13:09;;;;;;;39.38;24.33;;;10.70;94.70;;;;;;4920117;29;20044;-88
2021/12/16 11:15:45;;;;;;;36.47;23.75;;;10.70;94.60;;;;;;4905487;29;20034;-87
2021/12/16 11:18:15;;;;;;;39.38;23.60;;;10.70;94.60;;;;;;4905851;29;20028;-86
2021/12/16 11:20:48;;;;;;;38.63;23.48;;;10.70;94.60;;;;;;4905915;29;20028;-88
2021/12/16 11:23:18;;;;;;;36.13;23.55;;;10.70;94.60;;;;;;4906729;29;20024;-86
2021/12/16 11:25:48;;;;;;;37.95;23.13;;;10.70;94.60;;;;;;4906241;29;20488;-87
2021/12/16 11:28:24;;;;;;;37.42;23.35;;;10.70;94.60;;;;;;4906331;29;20096;-86
2021/12/16 11:30:54;;;;;;;38.85;23.48;;;10.70;94.60;;;;;;4906231;29;20020;-87
2021/12/16 11:33:39;;;;;;;38.42;23.50;;;10.80;94.60;;;;;;4906128;29;20123;-88
2021/12/16 11:36:12;;;;;;;37.38;23.33;;;10.70;94.60;;;;;;4906005;29;20036;-86
2021/12/16 11:38:48;;;;;;;37.90;23.98;;;10.70;94.60;;;;;;4905534;29;20039;-87
2021/12/16 11:41:18;;;;;;;38.25;22.75;;;10.70;94.70;;;;;;4906673;29;20036;-87
2021/12/16 11:44:09;;;;;;;36.28;23.27;;;10.70;94.70;;;;;;4906240;29;20071;-87
2021/12/16 11:46:46;;;;;;;37.75;23.45;;;10.70;94.80;;;;;;4906015;29;20028;-86
2021/12/16 11:49:20;;;;;;;36.33;22.90;;;10.60;94.80;;;;;;4905747;29;20360;-86
2021/12/16 11:52:11;;;;;;;38.33;23.25;;;10.60;94.90;;;;;;4905879;29;20024;-87
2021/12/16 11:54:57;;;;;;;;;;;10.60;94.90;;;;;;4897229;29;20508;-88
2021/12/16 11:57:36;;;;;;;37.20;22.48;;;10.60;94.90;;;;;;4906159;29;19907;-87
2021/12/16 12:00:11;;;;;;;35.55;22.23;;;10.60;95.00;;;;;;4905683;29;20035;-88
2021/12/16 12:02:52;;;;;;;38.38;22.73;;;10.60;95.10;;;;;;4905985;29;20032;-87
2021/12/16 12:05:19;;;;;;;;;;;10.60;95.00;;;;;;4906829;29;20024;-87
2021/12/16 12:07:49;;;;;;;39.92;22.77;;;10.60;95.00;;;;;;4904944;29;20331;-87
2021/12/16 12:10:22;;;;;;;37.15;23.33;;;10.60;95.10;;;;;;4905166;29;20034;-88
2021/12/16 12:12:49;;;;;;;34.42;21.70;;;10.50;95.10;;;;;;4905345;29;20496;-87
2021/12/16 12:15:18;;;;;;;34.70;23.63;;;10.50;95.00;;;;;;4905573;29;20036;-86
2021/12/16 12:17:54;;;;;;;32.80;21.02;;;10.50;95.10;;;;;;4905129;29;20306;-86
2021/12/16 12:20:27;;;;;;;35.60;21.95;;;10.50;95.00;;;;;;4905334;29;20036;-87
2021/12/16 12:22:53;;;;;;;38.13;23.60;;;10.50;95.10;;;;;;4905319;29;20032;-87
2021/12/16 12:25:20;;;;;;;35.63;21.67;;;10.60;95.10;;;;;;4904644;29;20563;-88
2021/12/16 12:27:46;;;;;;;36.80;22.40;;;10.50;95.10;;;;;;4904274;29;20396;-87
2021/12/16 12:30:13;;;;;;;34.75;21.50;;;10.60;95.20;;;;;;4904922;29;20035;-87
2021/12/16 12:32:45;;;;;;;32.72;20.88;;;10.60;95.10;;;;;;4904221;29;20036;-89
2021/12/16 12:35:17;;;;;;;34.15;21.83;;;10.50;95.10;;;;;;4905279;29;20276;-88
2021/12/16 12:37:49;;;;;;;33.15;21.30;;;10.60;95.20;;;;;;4904457;29;20032;-86
2021/12/16 12:40:31;;;;;;;36.40;21.35;;;10.60;95.20;;;;;;4904471;29;20063;-88
2021/12/16 12:42:58;;;;;;;34.67;21.52;;;10.60;95.10;;;;;;4904742;29;20032;-88
2021/12/16 12:45:28;;;;;;;34.50;21.20;;;10.60;95.20;;;;;;4904641;29;20025;-88
2021/12/16 12:47:57;;;;;;;34.20;20.45;;;10.60;95.20;;;;;;4905009;29;20027;-87
2021/12/16 12:50:30;;;;;;;34.78;21.75;;;10.60;95.20;;;;;;4904476;29;20509;-87
2021/12/16 12:52:59;;;;;;;32.13;20.13;;;10.60;95.20;;;;;;4905527;29;20103;-87
2021/12/16 12:55:31;;;;;;;34.35;21.40;;;10.60;95.20;;;;;;4905240;29;20032;-86
2021/12/16 12:58:06;;;;;;;35.17;21.00;;;10.60;95.20;;;;;;4905413;29;20032;-89
2021/12/16 13:00:51;;;;;;;32.95;20.88;;;10.60;95.20;;;;;;4904305;29;20081;-89
2021/12/16 13:03:32;;;;;;;31.48;20.10;;;10.60;95.20;;;;;;4904655;29;20035;-89
2021/12/16 13:06:17;;;;;;;31.70;19.70;;;10.60;95.20;;;;;;4905368;29;20021;-87
2021/12/16 13:08:46;;;;;;;32.95;20.40;;;10.60;95.20;;;;;;4932111;23;20031;-74
2021/12/16 13:11:13;;;;;;;32.72;20.00;;;10.60;95.20;;;;;;4935870;29;20483;-75
2021/12/16 13:14:18;;;;;;;32.20;20.52;;;10.60;95.10;;;;;;4936624;29;20135;-76
2021/12/16 13:26:18;;;;;;;32.97;20.70;;;10.60;95.20;;;;;;4972576;28;20038;-74
2021/12/16 13:29:01;;;;;;;29.90;19.55;;;10.60;95.20;;;;;;4971644;28;20045;-75
2021/12/16 13:32:04;;;;;;;32.47;20.58;;;10.60;95.20;;;;;;4955661;28;20027;-75
2021/12/16 13:35:22;;;;;;;30.38;20.45;;;10.60;95.20;;;;;;4972751;28;20019;-75
2021/12/16 13:37:54;;;;;;;31.00;19.40;;;10.60;95.20;;;;;;4941210;28;20502;-75
2021/12/16 13:40:31;;;;;;;30.00;20.02;;;10.60;95.20;;;;;;4976074;28;20026;-74
2021/12/16 13:43:01;;;;;;;30.63;19.23;;;10.60;95.20;;;;;;4959106;28;20026;-76
2021/12/16 13:45:52;;;;;;;32.67;19.58;;;10.60;95.20;;;;;;4976307;28;20026;-75
2021/12/16 14:08:01;;;;;;;30.58;18.63;;;10.60;95.10;;;;;;4976289;28;20022;-75
2021/12/16 14:10:45;;;;;;;29.85;18.42;;;10.60;95.10;;;;;;4975541;28;20030;-75
2021/12/16 14:16:24;;;;;;;32.78;18.75;;;10.60;95.10;;;;;;4975902;28;20127;-75
2021/12/16 14:25:18;;;;;;;31.30;18.95;;;10.60;95.10;;;;;;4975517;28;20427;-75
2021/12/16 14:34:50;;;;;;;29.35;19.30;;;10.60;95.10;;;;;;4975980;28;20114;-75
2021/12/16 14:42:33;;;;;;;31.05;19.88;;;10.60;95.10;;;;;;4975532;28;20030;-75
2021/12/16 14:50:24;;;;;;;29.25;18.13;;;10.60;95.10;;;;;;4973828;28;20435;-75
2021/12/16 14:52:50;;;;;;;31.50;18.92;;;10.60;95.10;;;;;;4975675;28;20101;-75
2021/12/16 14:55:18;;;;;;;32.60;20.17;;;10.60;95.10;;;;;;4958220;28;20126;-75
2021/12/16 14:57:48;;;;;;;30.10;18.65;;;10.60;95.10;;;;;;4958002;28;20050;-74
2021/12/16 15:00:23;;;;;;;29.80;19.60;;;10.60;95.10;;;;;;4974713;28;20561;-75
2021/12/16 15:03:18;;;;;;;30.45;19.67;;;10.60;95.10;;;;;;4975063;28;20091;-76
2021/12/16 15:05:51;;;;;;;30.15;18.75;;;10.60;95.10;;;;;;4957416;28;20391;-76
2021/12/16 15:08:33;;;;;;;30.48;19.30;;;10.60;95.10;;;;;;4957577;28;20030;-76
2021/12/16 15:11:01;;;;;;;31.25;19.48;;;10.60;95.10;;;;;;4974697;28;20030;-76
2021/12/16 15:13:36;;;;;;;31.35;19.83;;;10.60;95.10;;;;;;4957516;28;20031;-75
2021/12/16 15:36:28;;;;;;;31.02;19.67;;;10.60;95.10;;;;;;4974719;28;20031;-75
2021/12/16 15:38:36;;;;;;;31.13;19.55;;;10.60;95.10;;;;;;4969403;28;20450;-76
2021/12/16 15:43:56;;;;;;;33.95;20.33;;;10.60;95.10;;;;;;4928883;28;20126;-75
2021/12/16 15:46:27;;;;;;;29.95;19.60;;;10.60;95.10;;;;;;4974364;28;20022;-75
2021/12/16 15:48:54;;;;;;;31.73;19.33;;;10.60;95.10;;;;;;4974011;28;20030;-76
2021/12/16 15:51:24;;;;;;;31.98;20.23;;;10.60;95.10;;;;;;4956437;28;20035;-75
2021/12/16 15:53:54;;;;;;;31.55;19.52;;;10.60;95.10;;;;;;4956808;28;20026;-75
2021/12/16 15:56:23;;;;;;;32.75;20.40;;;10.60;95.10;;;;;;4974301;28;20026;-74
2021/12/16 15:58:53;;;;;;;34.80;20.67;;;10.60;95.10;;;;;;4973637;28;20030;-74
2021/12/16 16:01:41;;;;;;;31.33;20.23;;;10.60;95.10;;;;;;4973822;28;20034;-74
2021/12/16 16:04:16;;;;;;;28.88;18.70;;;10.60;95.00;;;;;;4972133;28;20046;-75
2021/12/16 16:06:44;;;;;;;28.38;19.02;;;10.60;95.00;;;;;;4955482;28;20022;-74
2021/12/16 16:09:11;;;;;;;31.55;19.73;;;10.60;94.90;;;;;;4956133;28;20037;-74
2021/12/16 16:11:40;;;;;;;31.55;19.85;;;10.60;94.80;;;;;;4956490;28;20527;-75
2021/12/16 16:14:06;;;;;;;33.38;19.55;;;10.60;94.80;;;;;;4956063;28;20023;-75
2021/12/16 16:16:41;;;;;;;33.85;20.08;;;10.60;94.90;;;;;;4956295;28;20035;-76
2021/12/16 16:19:09;;;;;;;30.63;19.83;;;10.60;94.90;;;;;;4955925;28;20382;-74
2021/12/16 16:21:40;;;;;;;31.55;19.05;;;10.60;94.90;;;;;;4973429;28;20031;-75
2021/12/16 16:24:17;;;;;;;31.52;19.48;;;10.60;94.90;;;;;;4955805;28;20026;-74
2021/12/16 16:26:44;;;;;;;32.55;19.95;;;10.60;94.90;;;;;;4956397;28;20501;-75